CheckWX is a tool to help pilots better visualize weather data.  It is not intended as a substitute for an official pre-flight weather briefing.

12:33:08 UTC

MWCB TAF
Gerrard Smith International Airport
Cayman Brac, Cayman Islands
TAF MWCB 261100Z 2612/2712 04008KT 9999 FEW018 TEMPO 2615/2620 9000 SHRA SCT016 TEMPO 2701/2707 9000 SHRA SCT016

Mar-26@
12:00 UTC

Mar-26 @ 12:00 UTC

Mar-27@
12:00 UTC

Mar-27 @ 12:00 UTC

TAF MWCB 261100Z 2612/2712 04008KT 9999 FEW018
Wind
  • 040° at 8 KTS
Cloud Levels
  • Few at 1,800' AGL

Mar-26@
15:00 UTC

Mar-26 @ 15:00 UTC

Mar-26@
20:00 UTC

Mar-26 @ 20:00 UTC

TEMPO 2615/2620 9000 SHRA SCT016

Temporary

Temporary Changes expected for less than half the time period

Conditions
Rain
Cloud Levels
  • Scattered at 1,600' AGL

Mar-27@
01:00 UTC

Mar-27 @ 01:00 UTC

Mar-27@
07:00 UTC

Mar-27 @ 07:00 UTC

TEMPO 2701/2707 9000 SHRA SCT016

Temporary

Temporary Changes expected for less than half the time period

Conditions
Rain
Cloud Levels
  • Scattered at 1,600' AGL